sensor_id;sensor_type;location;lat;lon;timestamp;P1;durP1;ratioP1;P2;durP2;ratioP2
38513;SDS011;24282;48.400;10.808;2023-03-03T00:00:25;45.47;;;26.87;;
38513;SDS011;24282;48.400;10.808;2023-03-03T00:02:51;51.77;;;30.10;;
38513;SDS011;24282;48.400;10.808;2023-03-03T00:05:17;52.17;;;29.70;;
38513;SDS011;24282;48.400;10.808;2023-03-03T00:07:43;52.13;;;31.17;;
38513;SDS011;24282;48.400;10.808;2023-03-03T00:10:09;51.23;;;27.83;;
38513;SDS011;24282;48.400;10.808;2023-03-03T00:12:42;53.20;;;28.40;;
38513;SDS011;24282;48.400;10.808;2023-03-03T00:15:15;49.43;;;28.53;;
38513;SDS011;24282;48.400;10.808;2023-03-03T00:17:43;50.10;;;29.60;;
38513;SDS011;24282;48.400;10.808;2023-03-03T00:22:50;52.20;;;30.50;;
38513;SDS011;24282;48.400;10.808;2023-03-03T00:27:51;52.13;;;29.17;;
38513;SDS011;24282;48.400;10.808;2023-03-03T00:30:19;54.83;;;30.30;;
38513;SDS011;24282;48.400;10.808;2023-03-03T00:32:52;48.90;;;28.57;;
38513;SDS011;24282;48.400;10.808;2023-03-03T00:37:58;50.40;;;28.57;;
38513;SDS011;24282;48.400;10.808;2023-03-03T00:40:26;50.57;;;29.77;;
38513;SDS011;24282;48.400;10.808;2023-03-03T00:42:59;56.87;;;31.37;;
38513;SDS011;24282;48.400;10.808;2023-03-03T00:45:30;50.57;;;30.27;;
38513;SDS011;24282;48.400;10.808;2023-03-03T00:50:55;52.83;;;30.03;;
38513;SDS011;24282;48.400;10.808;2023-03-03T00:53:23;53.77;;;29.10;;
38513;SDS011;24282;48.400;10.808;2023-03-03T00:55:51;51.37;;;29.80;;
38513;SDS011;24282;48.400;10.808;2023-03-03T00:58:18;53.90;;;30.33;;
38513;SDS011;24282;48.400;10.808;2023-03-03T01:00:50;51.23;;;28.73;;
38513;SDS011;24282;48.400;10.808;2023-03-03T01:03:22;56.93;;;32.20;;
38513;SDS011;24282;48.400;10.808;2023-03-03T01:05:50;51.90;;;29.93;;
38513;SDS011;24282;48.400;10.808;2023-03-03T01:08:17;55.53;;;30.93;;
38513;SDS011;24282;48.400;10.808;2023-03-03T01:10:45;53.27;;;30.47;;
38513;SDS011;24282;48.400;10.808;2023-03-03T01:13:15;52.27;;;28.57;;
38513;SDS011;24282;48.400;10.808;2023-03-03T01:15:42;50.10;;;27.23;;
38513;SDS011;24282;48.400;10.808;2023-03-03T01:18:09;53.23;;;30.50;;
38513;SDS011;24282;48.400;10.808;2023-03-03T01:20:37;48.37;;;26.57;;
38513;SDS011;24282;48.400;10.808;2023-03-03T01:23:04;51.27;;;29.77;;
38513;SDS011;24282;48.400;10.808;2023-03-03T01:25:30;51.37;;;29.60;;
38513;SDS011;24282;48.400;10.808;2023-03-03T01:27:57;51.83;;;28.57;;
38513;SDS011;24282;48.400;10.808;2023-03-03T01:30:23;54.33;;;29.47;;
38513;SDS011;24282;48.400;10.808;2023-03-03T01:32:49;55.23;;;29.67;;
38513;SDS011;24282;48.400;10.808;2023-03-03T01:35:15;57.40;;;31.23;;
38513;SDS011;24282;48.400;10.808;2023-03-03T01:37:41;55.47;;;31.33;;
38513;SDS011;24282;48.400;10.808;2023-03-03T01:40:12;50.80;;;28.93;;
38513;SDS011;24282;48.400;10.808;2023-03-03T01:42:49;50.60;;;30.00;;
38513;SDS011;24282;48.400;10.808;2023-03-03T01:48:09;53.00;;;29.33;;
38513;SDS011;24282;48.400;10.808;2023-03-03T01:50:41;55.60;;;31.20;;
38513;SDS011;24282;48.400;10.808;2023-03-03T01:53:17;57.42;;;30.23;;
38513;SDS011;24282;48.400;10.808;2023-03-03T01:55:47;51.67;;;29.03;;
38513;SDS011;24282;48.400;10.808;2023-03-03T01:58:29;53.20;;;28.73;;
38513;SDS011;24282;48.400;10.808;2023-03-03T02:01:04;52.10;;;29.60;;
38513;SDS011;24282;48.400;10.808;2023-03-03T02:03:34;59.07;;;31.30;;
38513;SDS011;24282;48.400;10.808;2023-03-03T02:06:02;52.50;;;29.40;;
38513;SDS011;24282;48.400;10.808;2023-03-03T02:11:39;50.67;;;29.27;;
38513;SDS011;24282;48.400;10.808;2023-03-03T02:14:09;53.03;;;29.83;;
38513;SDS011;24282;48.400;10.808;2023-03-03T02:16:39;52.33;;;30.57;;
38513;SDS011;24282;48.400;10.808;2023-03-03T02:19:05;53.73;;;30.43;;
38513;SDS011;24282;48.400;10.808;2023-03-03T02:21:35;54.40;;;30.20;;
38513;SDS011;24282;48.400;10.808;2023-03-03T02:26:50;55.70;;;31.27;;
38513;SDS011;24282;48.400;10.808;2023-03-03T02:29:16;51.00;;;29.17;;
38513;SDS011;24282;48.400;10.808;2023-03-03T02:31:42;52.37;;;31.37;;
38513;SDS011;24282;48.400;10.808;2023-03-03T02:34:08;54.40;;;31.10;;
38513;SDS011;24282;48.400;10.808;2023-03-03T02:36:35;52.77;;;31.03;;
38513;SDS011;24282;48.400;10.808;2023-03-03T02:44:16;56.50;;;31.67;;
38513;SDS011;24282;48.400;10.808;2023-03-03T02:46:45;54.07;;;30.37;;
38513;SDS011;24282;48.400;10.808;2023-03-03T02:49:14;54.10;;;30.00;;
38513;SDS011;24282;48.400;10.808;2023-03-03T02:51:42;55.03;;;29.40;;
38513;SDS011;24282;48.400;10.808;2023-03-03T02:54:08;55.00;;;30.63;;
38513;SDS011;24282;48.400;10.808;2023-03-03T02:56:36;51.00;;;28.97;;
38513;SDS011;24282;48.400;10.808;2023-03-03T02:59:03;51.37;;;29.70;;
38513;SDS011;24282;48.400;10.808;2023-03-03T03:01:32;50.50;;;28.93;;
38513;SDS011;24282;48.400;10.808;2023-03-03T03:04:06;56.47;;;32.13;;
38513;SDS011;24282;48.400;10.808;2023-03-03T03:06:40;55.87;;;30.27;;
38513;SDS011;24282;48.400;10.808;2023-03-03T03:09:07;52.40;;;28.57;;
38513;SDS011;24282;48.400;10.808;2023-03-03T03:11:34;57.90;;;30.50;;
38513;SDS011;24282;48.400;10.808;2023-03-03T03:14:00;50.13;;;30.17;;
38513;SDS011;24282;48.400;10.808;2023-03-03T03:16:31;54.00;;;30.17;;
38513;SDS011;24282;48.400;10.808;2023-03-03T03:18:58;56.53;;;31.80;;
38513;SDS011;24282;48.400;10.808;2023-03-03T03:21:26;54.17;;;29.23;;
38513;SDS011;24282;48.400;10.808;2023-03-03T03:23:52;54.50;;;30.77;;
38513;SDS011;24282;48.400;10.808;2023-03-03T03:26:19;54.60;;;30.67;;
38513;SDS011;24282;48.400;10.808;2023-03-03T03:28:46;50.20;;;29.57;;
38513;SDS011;24282;48.400;10.808;2023-03-03T03:31:13;55.03;;;30.33;;
38513;SDS011;24282;48.400;10.808;2023-03-03T03:33:39;53.47;;;29.63;;
38513;SDS011;24282;48.400;10.808;2023-03-03T03:36:05;56.93;;;29.93;;
38513;SDS011;24282;48.400;10.808;2023-03-03T03:38:32;57.53;;;30.77;;
38513;SDS011;24282;48.400;10.808;2023-03-03T03:41:00;53.20;;;30.23;;
38513;SDS011;24282;48.400;10.808;2023-03-03T03:43:27;54.00;;;29.97;;
38513;SDS011;24282;48.400;10.808;2023-03-03T03:45:53;51.80;;;30.10;;
38513;SDS011;24282;48.400;10.808;2023-03-03T03:48:19;52.63;;;29.53;;
38513;SDS011;24282;48.400;10.808;2023-03-03T03:50:47;53.53;;;30.33;;
38513;SDS011;24282;48.400;10.808;2023-03-03T03:53:14;57.47;;;30.80;;
38513;SDS011;24282;48.400;10.808;2023-03-03T03:55:40;52.83;;;30.47;;
38513;SDS011;24282;48.400;10.808;2023-03-03T03:58:06;52.60;;;29.80;;
38513;SDS011;24282;48.400;10.808;2023-03-03T04:00:33;53.13;;;29.27;;
38513;SDS011;24282;48.400;10.808;2023-03-03T04:03:00;56.50;;;30.73;;
38513;SDS011;24282;48.400;10.808;2023-03-03T04:05:26;54.87;;;31.80;;
38513;SDS011;24282;48.400;10.808;2023-03-03T04:07:53;56.60;;;29.43;;
38513;SDS011;24282;48.400;10.808;2023-03-03T04:10:18;51.33;;;29.00;;
38513;SDS011;24282;48.400;10.808;2023-03-03T04:12:45;57.63;;;31.63;;
38513;SDS011;24282;48.400;10.808;2023-03-03T04:15:12;51.40;;;30.40;;
38513;SDS011;24282;48.400;10.808;2023-03-03T04:17:39;58.33;;;31.77;;
38513;SDS011;24282;48.400;10.808;2023-03-03T04:20:06;51.57;;;30.47;;
38513;SDS011;24282;48.400;10.808;2023-03-03T04:22:35;55.23;;;30.37;;
38513;SDS011;24282;48.400;10.808;2023-03-03T04:25:04;53.27;;;30.13;;
38513;SDS011;24282;48.400;10.808;2023-03-03T04:27:36;55.60;;;30.90;;
38513;SDS011;24282;48.400;10.808;2023-03-03T04:30:04;55.53;;;28.93;;
38513;SDS011;24282;48.400;10.808;2023-03-03T04:32:31;55.40;;;30.50;;
38513;SDS011;24282;48.400;10.808;2023-03-03T04:35:03;52.73;;;30.60;;
38513;SDS011;24282;48.400;10.808;2023-03-03T04:37:29;54.87;;;31.07;;
38513;SDS011;24282;48.400;10.808;2023-03-03T04:39:55;56.67;;;31.80;;
38513;SDS011;24282;48.400;10.808;2023-03-03T04:42:21;57.07;;;32.77;;
38513;SDS011;24282;48.400;10.808;2023-03-03T04:44:47;53.03;;;30.60;;
38513;SDS011;24282;48.400;10.808;2023-03-03T04:47:13;53.57;;;31.40;;
38513;SDS011;24282;48.400;10.808;2023-03-03T04:49:39;54.27;;;32.87;;
38513;SDS011;24282;48.400;10.808;2023-03-03T04:52:05;54.93;;;31.03;;
38513;SDS011;24282;48.400;10.808;2023-03-03T04:54:31;55.53;;;32.57;;
38513;SDS011;24282;48.400;10.808;2023-03-03T04:56:57;55.57;;;31.67;;
38513;SDS011;24282;48.400;10.808;2023-03-03T04:59:23;55.17;;;32.17;;
38513;SDS011;24282;48.400;10.808;2023-03-03T05:01:49;59.40;;;32.87;;
38513;SDS011;24282;48.400;10.808;2023-03-03T05:04:15;57.03;;;33.17;;
38513;SDS011;24282;48.400;10.808;2023-03-03T05:06:41;58.00;;;34.23;;
38513;SDS011;24282;48.400;10.808;2023-03-03T05:09:07;58.10;;;33.93;;
38513;SDS011;24282;48.400;10.808;2023-03-03T05:11:33;57.53;;;31.60;;
38513;SDS011;24282;48.400;10.808;2023-03-03T05:13:59;59.00;;;31.33;;
38513;SDS011;24282;48.400;10.808;2023-03-03T05:16:27;59.33;;;33.00;;
38513;SDS011;24282;48.400;10.808;2023-03-03T05:18:53;51.70;;;29.87;;
38513;SDS011;24282;48.400;10.808;2023-03-03T05:21:19;58.17;;;33.03;;
38513;SDS011;24282;48.400;10.808;2023-03-03T05:23:45;61.13;;;33.20;;
38513;SDS011;24282;48.400;10.808;2023-03-03T05:26:10;60.60;;;33.93;;
38513;SDS011;24282;48.400;10.808;2023-03-03T05:28:36;58.07;;;33.20;;
38513;SDS011;24282;48.400;10.808;2023-03-03T05:31:02;55.87;;;32.30;;
38513;SDS011;24282;48.400;10.808;2023-03-03T05:33:28;59.13;;;34.60;;
38513;SDS011;24282;48.400;10.808;2023-03-03T05:35:54;57.97;;;34.40;;
38513;SDS011;24282;48.400;10.808;2023-03-03T05:38:22;64.13;;;34.27;;
38513;SDS011;24282;48.400;10.808;2023-03-03T05:40:48;61.80;;;35.40;;
38513;SDS011;24282;48.400;10.808;2023-03-03T05:43:15;57.17;;;33.23;;
38513;SDS011;24282;48.400;10.808;2023-03-03T05:45:40;58.47;;;33.00;;
38513;SDS011;24282;48.400;10.808;2023-03-03T05:48:06;55.37;;;31.77;;
38513;SDS011;24282;48.400;10.808;2023-03-03T05:50:34;56.73;;;34.73;;
38513;SDS011;24282;48.400;10.808;2023-03-03T05:53:01;59.60;;;34.43;;
38513;SDS011;24282;48.400;10.808;2023-03-03T05:55:27;56.97;;;33.97;;
38513;SDS011;24282;48.400;10.808;2023-03-03T05:57:53;55.47;;;33.43;;
38513;SDS011;24282;48.400;10.808;2023-03-03T06:00:19;58.13;;;34.20;;
38513;SDS011;24282;48.400;10.808;2023-03-03T06:02:45;57.67;;;33.00;;
38513;SDS011;24282;48.400;10.808;2023-03-03T06:05:11;57.60;;;32.50;;
38513;SDS011;24282;48.400;10.808;2023-03-03T06:07:37;57.37;;;33.93;;
38513;SDS011;24282;48.400;10.808;2023-03-03T06:10:03;56.63;;;32.57;;
38513;SDS011;24282;48.400;10.808;2023-03-03T06:12:32;55.90;;;34.27;;
38513;SDS011;24282;48.400;10.808;2023-03-03T06:14:58;61.07;;;35.23;;
38513;SDS011;24282;48.400;10.808;2023-03-03T06:17:24;56.23;;;34.73;;
38513;SDS011;24282;48.400;10.808;2023-03-03T06:19:49;60.80;;;34.27;;
38513;SDS011;24282;48.400;10.808;2023-03-03T06:22:15;58.17;;;33.07;;
38513;SDS011;24282;48.400;10.808;2023-03-03T06:24:41;54.57;;;31.73;;
38513;SDS011;24282;48.400;10.808;2023-03-03T06:27:08;57.17;;;33.70;;
38513;SDS011;24282;48.400;10.808;2023-03-03T06:29:34;67.47;;;36.80;;
38513;SDS011;24282;48.400;10.808;2023-03-03T06:31:59;61.37;;;36.73;;
38513;SDS011;24282;48.400;10.808;2023-03-03T06:34:25;65.00;;;38.07;;
38513;SDS011;24282;48.400;10.808;2023-03-03T06:36:51;62.33;;;35.80;;
38513;SDS011;24282;48.400;10.808;2023-03-03T06:39:16;64.97;;;37.13;;
38513;SDS011;24282;48.400;10.808;2023-03-03T06:41:42;58.40;;;34.90;;
38513;SDS011;24282;48.400;10.808;2023-03-03T06:44:08;59.07;;;35.53;;
38513;SDS011;24282;48.400;10.808;2023-03-03T06:46:35;52.80;;;32.77;;
38513;SDS011;24282;48.400;10.808;2023-03-03T06:49:01;57.23;;;35.40;;
38513;SDS011;24282;48.400;10.808;2023-03-03T06:51:31;58.37;;;34.27;;
38513;SDS011;24282;48.400;10.808;2023-03-03T06:54:09;55.13;;;31.97;;
38513;SDS011;24282;48.400;10.808;2023-03-03T06:56:46;59.47;;;34.97;;
38513;SDS011;24282;48.400;10.808;2023-03-03T06:59:18;57.27;;;34.47;;
38513;SDS011;24282;48.400;10.808;2023-03-03T07:01:46;61.07;;;34.63;;
38513;SDS011;24282;48.400;10.808;2023-03-03T07:04:30;56.97;;;34.00;;
38513;SDS011;24282;48.400;10.808;2023-03-03T07:07:10;56.03;;;33.60;;
38513;SDS011;24282;48.400;10.808;2023-03-03T07:09:45;59.53;;;34.90;;
38513;SDS011;24282;48.400;10.808;2023-03-03T07:12:15;56.03;;;35.43;;
38513;SDS011;24282;48.400;10.808;2023-03-03T07:14:44;64.83;;;35.47;;
38513;SDS011;24282;48.400;10.808;2023-03-03T07:17:19;58.33;;;35.17;;
38513;SDS011;24282;48.400;10.808;2023-03-03T07:19:47;63.38;;;36.97;;
38513;SDS011;24282;48.400;10.808;2023-03-03T07:22:15;61.00;;;35.70;;
38513;SDS011;24282;48.400;10.808;2023-03-03T07:24:43;55.63;;;32.87;;
38513;SDS011;24282;48.400;10.808;2023-03-03T07:27:11;66.93;;;37.30;;
38513;SDS011;24282;48.400;10.808;2023-03-03T07:29:50;60.33;;;33.97;;
38513;SDS011;24282;48.400;10.808;2023-03-03T07:35:03;62.20;;;36.23;;
38513;SDS011;24282;48.400;10.808;2023-03-03T07:37:48;59.87;;;35.33;;
38513;SDS011;24282;48.400;10.808;2023-03-03T07:43:15;64.00;;;40.63;;
38513;SDS011;24282;48.400;10.808;2023-03-03T07:48:38;64.57;;;38.37;;
38513;SDS011;24282;48.400;10.808;2023-03-03T07:51:28;62.27;;;37.67;;
38513;SDS011;24282;48.400;10.808;2023-03-03T07:54:11;54.93;;;33.13;;
38513;SDS011;24282;48.400;10.808;2023-03-03T07:59:34;63.53;;;37.07;;
38513;SDS011;24282;48.400;10.808;2023-03-03T08:04:55;57.60;;;35.03;;
38513;SDS011;24282;48.400;10.808;2023-03-03T08:07:21;59.30;;;35.00;;
38513;SDS011;24282;48.400;10.808;2023-03-03T08:09:51;64.40;;;36.17;;
38513;SDS011;24282;48.400;10.808;2023-03-03T08:14:53;62.47;;;36.23;;
38513;SDS011;24282;48.400;10.808;2023-03-03T08:17:21;56.90;;;34.10;;
38513;SDS011;24282;48.400;10.808;2023-03-03T08:19:49;66.70;;;37.87;;
38513;SDS011;24282;48.400;10.808;2023-03-03T08:22:17;66.00;;;39.93;;
38513;SDS011;24282;48.400;10.808;2023-03-03T08:24:54;63.07;;;37.77;;
38513;SDS011;24282;48.400;10.808;2023-03-03T08:27:20;66.43;;;39.00;;
38513;SDS011;24282;48.400;10.808;2023-03-03T08:29:45;63.10;;;37.40;;
38513;SDS011;24282;48.400;10.808;2023-03-03T08:32:11;62.90;;;38.70;;
38513;SDS011;24282;48.400;10.808;2023-03-03T08:34:37;65.10;;;39.27;;
38513;SDS011;24282;48.400;10.808;2023-03-03T08:37:02;65.67;;;38.43;;
38513;SDS011;24282;48.400;10.808;2023-03-03T08:39:28;68.17;;;37.13;;
38513;SDS011;24282;48.400;10.808;2023-03-03T08:41:54;60.17;;;35.70;;
38513;SDS011;24282;48.400;10.808;2023-03-03T08:44:20;55.43;;;33.87;;
38513;SDS011;24282;48.400;10.808;2023-03-03T08:46:46;56.97;;;35.30;;
38513;SDS011;24282;48.400;10.808;2023-03-03T08:49:12;60.10;;;35.93;;
38513;SDS011;24282;48.400;10.808;2023-03-03T08:51:37;56.00;;;34.43;;
38513;SDS011;24282;48.400;10.808;2023-03-03T08:54:03;59.20;;;34.40;;
38513;SDS011;24282;48.400;10.808;2023-03-03T08:56:29;60.80;;;36.10;;
38513;SDS011;24282;48.400;10.808;2023-03-03T08:58:54;57.00;;;34.00;;
38513;SDS011;24282;48.400;10.808;2023-03-03T09:01:20;57.37;;;35.90;;
38513;SDS011;24282;48.400;10.808;2023-03-03T09:03:46;54.27;;;34.63;;
38513;SDS011;24282;48.400;10.808;2023-03-03T09:06:12;57.83;;;34.73;;
38513;SDS011;24282;48.400;10.808;2023-03-03T09:08:37;55.50;;;35.00;;
38513;SDS011;24282;48.400;10.808;2023-03-03T09:11:11;53.03;;;35.07;;
38513;SDS011;24282;48.400;10.808;2023-03-03T09:13:38;58.90;;;33.63;;
38513;SDS011;24282;48.400;10.808;2023-03-03T09:16:13;53.20;;;34.37;;
38513;SDS011;24282;48.400;10.808;2023-03-03T09:18:40;52.83;;;34.73;;
38513;SDS011;24282;48.400;10.808;2023-03-03T09:21:18;48.00;;;33.23;;
38513;SDS011;24282;48.400;10.808;2023-03-03T09:23:54;53.07;;;33.90;;
38513;SDS011;24282;48.400;10.808;2023-03-03T09:31:39;48.00;;;32.10;;
38513;SDS011;24282;48.400;10.808;2023-03-03T09:40:00;49.43;;;31.10;;
38513;SDS011;24282;48.400;10.808;2023-03-03T09:43:10;48.83;;;30.60;;
38513;SDS011;24282;48.400;10.808;2023-03-03T09:46:03;48.40;;;31.67;;
38513;SDS011;24282;48.400;10.808;2023-03-03T09:51:11;49.97;;;32.30;;
38513;SDS011;24282;48.400;10.808;2023-03-03T09:56:32;49.40;;;31.43;;
38513;SDS011;24282;48.400;10.808;2023-03-03T10:10:15;48.70;;;31.10;;
38513;SDS011;24282;48.400;10.808;2023-03-03T10:21:20;44.93;;;31.07;;
38513;SDS011;24282;48.400;10.808;2023-03-03T10:26:41;38.57;;;27.13;;
38513;SDS011;24282;48.400;10.808;2023-03-03T10:29:38;51.20;;;31.80;;
38513;SDS011;24282;48.400;10.808;2023-03-03T10:37:51;44.10;;;30.83;;
38513;SDS011;24282;48.400;10.808;2023-03-03T10:40:45;42.47;;;29.33;;
38513;SDS011;24282;48.400;10.808;2023-03-03T10:52:00;50.63;;;32.37;;
38513;SDS011;24282;48.400;10.808;2023-03-03T10:57:39;45.05;;;30.30;;
38513;SDS011;24282;48.400;10.808;2023-03-03T11:11:36;45.83;;;31.00;;
38513;SDS011;24282;48.400;10.808;2023-03-03T11:14:19;34.50;;;23.58;;
38513;SDS011;24282;48.400;10.808;2023-03-03T11:17:15;41.73;;;28.10;;
38513;SDS011;24282;48.400;10.808;2023-03-03T11:19:56;38.23;;;27.60;;
38513;SDS011;24282;48.400;10.808;2023-03-03T11:27:59;39.90;;;26.80;;
38513;SDS011;24282;48.400;10.808;2023-03-03T11:33:39;40.17;;;27.30;;
38513;SDS011;24282;48.400;10.808;2023-03-03T11:38:47;40.33;;;26.20;;
38513;SDS011;24282;48.400;10.808;2023-03-03T11:43:57;35.70;;;25.40;;
38513;SDS011;24282;48.400;10.808;2023-03-03T11:46:39;38.37;;;27.47;;
38513;SDS011;24282;48.400;10.808;2023-03-03T11:52:06;38.60;;;28.13;;
38513;SDS011;24282;48.400;10.808;2023-03-03T11:57:19;34.80;;;25.23;;
38513;SDS011;24282;48.400;10.808;2023-03-03T11:59:56;38.33;;;25.83;;
38513;SDS011;24282;48.400;10.808;2023-03-03T12:10:23;35.70;;;25.77;;
38513;SDS011;24282;48.400;10.808;2023-03-03T12:13:01;36.77;;;26.77;;
38513;SDS011;24282;48.400;10.808;2023-03-03T12:15:57;34.23;;;24.13;;
38513;SDS011;24282;48.400;10.808;2023-03-03T12:24:30;37.13;;;25.37;;
38513;SDS011;24282;48.400;10.808;2023-03-03T12:35:26;33.70;;;23.90;;
38513;SDS011;24282;48.400;10.808;2023-03-03T12:40:33;36.80;;;26.67;;
38513;SDS011;24282;48.400;10.808;2023-03-03T12:43:13;35.33;;;25.27;;
38513;SDS011;24282;48.400;10.808;2023-03-03T12:48:40;32.60;;;23.47;;
38513;SDS011;24282;48.400;10.808;2023-03-03T13:05:14;33.77;;;25.13;;
38513;SDS011;24282;48.400;10.808;2023-03-03T13:10:40;36.67;;;26.20;;
38513;SDS011;24282;48.400;10.808;2023-03-03T13:16:13;31.47;;;21.63;;
38513;SDS011;24282;48.400;10.808;2023-03-03T13:18:59;33.03;;;23.73;;
38513;SDS011;24282;48.400;10.808;2023-03-03T13:21:48;30.80;;;21.27;;
38513;SDS011;24282;48.400;10.808;2023-03-03T13:27:05;30.00;;;24.00;;
38513;SDS011;24282;48.400;10.808;2023-03-03T13:29:36;34.57;;;24.97;;
38513;SDS011;24282;48.400;10.808;2023-03-03T13:32:15;26.90;;;21.30;;
38513;SDS011;24282;48.400;10.808;2023-03-03T13:47:48;27.83;;;21.23;;
38513;SDS011;24282;48.400;10.808;2023-03-03T13:55:49;29.42;;;22.20;;
38513;SDS011;24282;48.400;10.808;2023-03-03T13:58:41;30.27;;;21.03;;
38513;SDS011;24282;48.400;10.808;2023-03-03T14:01:30;33.13;;;22.60;;
38513;SDS011;24282;48.400;10.808;2023-03-03T14:04:44;28.00;;;21.27;;
38513;SDS011;24282;48.400;10.808;2023-03-03T14:12:29;26.97;;;20.60;;
38513;SDS011;24282;48.400;10.808;2023-03-03T14:15:08;27.80;;;21.63;;
38513;SDS011;24282;48.400;10.808;2023-03-03T14:20:38;30.13;;;22.67;;
38513;SDS011;24282;48.400;10.808;2023-03-03T14:23:12;30.93;;;22.60;;
38513;SDS011;24282;48.400;10.808;2023-03-03T14:26:00;27.80;;;20.37;;
38513;SDS011;24282;48.400;10.808;2023-03-03T14:28:41;28.00;;;20.60;;
38513;SDS011;24282;48.400;10.808;2023-03-03T14:31:28;28.20;;;20.10;;
38513;SDS011;24282;48.400;10.808;2023-03-03T14:36:32;28.70;;;22.27;;
38513;SDS011;24282;48.400;10.808;2023-03-03T14:39:07;26.93;;;20.80;;
38513;SDS011;24282;48.400;10.808;2023-03-03T14:41:57;30.40;;;23.53;;
38513;SDS011;24282;48.400;10.808;2023-03-03T14:49:36;26.60;;;20.93;;
38513;SDS011;24282;48.400;10.808;2023-03-03T14:54:42;27.77;;;20.80;;
38513;SDS011;24282;48.400;10.808;2023-03-03T14:57:18;29.80;;;20.87;;
38513;SDS011;24282;48.400;10.808;2023-03-03T15:00:04;27.77;;;20.63;;
38513;SDS011;24282;48.400;10.808;2023-03-03T15:05:35;27.10;;;21.20;;
38513;SDS011;24282;48.400;10.808;2023-03-03T15:15:50;28.90;;;20.23;;
38513;SDS011;24282;48.400;10.808;2023-03-03T15:18:27;26.93;;;20.53;;
38513;SDS011;24282;48.400;10.808;2023-03-03T15:29:24;27.33;;;20.93;;
38513;SDS011;24282;48.400;10.808;2023-03-03T15:34:35;29.47;;;21.50;;
38513;SDS011;24282;48.400;10.808;2023-03-03T15:42:23;26.87;;;19.43;;
38513;SDS011;24282;48.400;10.808;2023-03-03T15:47:45;27.40;;;21.23;;
38513;SDS011;24282;48.400;10.808;2023-03-03T15:55:31;26.23;;;19.77;;
38513;SDS011;24282;48.400;10.808;2023-03-03T16:03:04;27.63;;;19.42;;
38513;SDS011;24282;48.400;10.808;2023-03-03T16:05:58;23.40;;;18.93;;
38513;SDS011;24282;48.400;10.808;2023-03-03T16:08:39;28.67;;;19.83;;
38513;SDS011;24282;48.400;10.808;2023-03-03T16:11:27;25.23;;;18.73;;
38513;SDS011;24282;48.400;10.808;2023-03-03T16:17:10;25.27;;;18.60;;
38513;SDS011;24282;48.400;10.808;2023-03-03T16:22:41;26.27;;;19.60;;
38513;SDS011;24282;48.400;10.808;2023-03-03T16:28:17;27.20;;;18.73;;
38513;SDS011;24282;48.400;10.808;2023-03-03T16:30:56;24.53;;;18.43;;
38513;SDS011;24282;48.400;10.808;2023-03-03T16:38:44;29.20;;;20.57;;
38513;SDS011;24282;48.400;10.808;2023-03-03T16:41:18;26.00;;;19.83;;
38513;SDS011;24282;48.400;10.808;2023-03-03T16:51:52;34.33;;;22.10;;
38513;SDS011;24282;48.400;10.808;2023-03-03T16:59:45;29.93;;;22.27;;
38513;SDS011;24282;48.400;10.808;2023-03-03T17:05:10;32.67;;;22.13;;
38513;SDS011;24282;48.400;10.808;2023-03-03T17:10:40;31.73;;;21.27;;
38513;SDS011;24282;48.400;10.808;2023-03-03T17:16:06;30.83;;;22.03;;
38513;SDS011;24282;48.400;10.808;2023-03-03T17:26:56;30.73;;;22.05;;
38513;SDS011;24282;48.400;10.808;2023-03-03T17:29:38;29.48;;;21.52;;
38513;SDS011;24282;48.400;10.808;2023-03-03T17:43:22;33.63;;;23.53;;
38513;SDS011;24282;48.400;10.808;2023-03-03T17:45:55;34.57;;;23.27;;
38513;SDS011;24282;48.400;10.808;2023-03-03T17:51:50;35.00;;;23.63;;
38513;SDS011;24282;48.400;10.808;2023-03-03T17:54:25;38.73;;;24.80;;
38513;SDS011;24282;48.400;10.808;2023-03-03T18:24:52;35.00;;;25.13;;
38513;SDS011;24282;48.400;10.808;2023-03-03T18:33:12;30.80;;;22.67;;
38513;SDS011;24282;48.400;10.808;2023-03-03T18:40:49;33.33;;;24.33;;
38513;SDS011;24282;48.400;10.808;2023-03-03T18:48:50;37.00;;;24.93;;
38513;SDS011;24282;48.400;10.808;2023-03-03T18:52:12;38.03;;;25.87;;
38513;SDS011;24282;48.400;10.808;2023-03-03T19:04:39;34.63;;;24.43;;
38513;SDS011;24282;48.400;10.808;2023-03-03T19:07:17;36.77;;;26.20;;
38513;SDS011;24282;48.400;10.808;2023-03-03T19:09:54;37.30;;;27.23;;
38513;SDS011;24282;48.400;10.808;2023-03-03T19:20:48;40.30;;;27.52;;
38513;SDS011;24282;48.400;10.808;2023-03-03T19:23:53;37.10;;;25.50;;
38513;SDS011;24282;48.400;10.808;2023-03-03T19:40:21;36.30;;;24.43;;
38513;SDS011;24282;48.400;10.808;2023-03-03T19:48:47;35.20;;;24.93;;
38513;SDS011;24282;48.400;10.808;2023-03-03T19:54:47;38.23;;;25.63;;
38513;SDS011;24282;48.400;10.808;2023-03-03T19:57:10;40.63;;;26.40;;
38513;SDS011;24282;48.400;10.808;2023-03-03T20:00:05;41.40;;;27.67;;
38513;SDS011;24282;48.400;10.808;2023-03-03T20:11:43;41.78;;;28.10;;
38513;SDS011;24282;48.400;10.808;2023-03-03T20:14:40;43.40;;;27.90;;
38513;SDS011;24282;48.400;10.808;2023-03-03T20:22:29;38.87;;;28.37;;
38513;SDS011;24282;48.400;10.808;2023-03-03T20:25:02;47.88;;;28.88;;
38513;SDS011;24282;48.400;10.808;2023-03-03T20:47:15;44.30;;;29.40;;
38513;SDS011;24282;48.400;10.808;2023-03-03T20:49:57;44.40;;;29.40;;
38513;SDS011;24282;48.400;10.808;2023-03-03T20:56:04;43.50;;;29.53;;
38513;SDS011;24282;48.400;10.808;2023-03-03T20:58:25;45.43;;;31.20;;
38513;SDS011;24282;48.400;10.808;2023-03-03T21:01:08;44.83;;;29.53;;
38513;SDS011;24282;48.400;10.808;2023-03-03T21:03:40;46.87;;;29.80;;
38513;SDS011;24282;48.400;10.808;2023-03-03T21:11:08;44.77;;;29.87;;
38513;SDS011;24282;48.400;10.808;2023-03-03T21:13:36;42.90;;;28.23;;
38513;SDS011;24282;48.400;10.808;2023-03-03T21:21:26;41.33;;;28.03;;
38513;SDS011;24282;48.400;10.808;2023-03-03T21:23:54;44.37;;;30.17;;
38513;SDS011;24282;48.400;10.808;2023-03-03T21:29:07;46.30;;;31.53;;
38513;SDS011;24282;48.400;10.808;2023-03-03T21:31:47;47.60;;;31.40;;
38513;SDS011;24282;48.400;10.808;2023-03-03T21:34:34;55.13;;;34.33;;
38513;SDS011;24282;48.400;10.808;2023-03-03T21:37:03;47.03;;;30.57;;
38513;SDS011;24282;48.400;10.808;2023-03-03T21:39:34;47.30;;;31.37;;
38513;SDS011;24282;48.400;10.808;2023-03-03T21:42:37;48.27;;;32.57;;
38513;SDS011;24282;48.400;10.808;2023-03-03T21:45:11;52.10;;;33.27;;
38513;SDS011;24282;48.400;10.808;2023-03-03T21:47:38;49.00;;;30.73;;
38513;SDS011;24282;48.400;10.808;2023-03-03T21:50:03;49.60;;;33.70;;
38513;SDS011;24282;48.400;10.808;2023-03-03T21:52:29;48.13;;;31.67;;
38513;SDS011;24282;48.400;10.808;2023-03-03T21:54:56;54.77;;;35.47;;
38513;SDS011;24282;48.400;10.808;2023-03-03T21:57:22;57.90;;;37.13;;
38513;SDS011;24282;48.400;10.808;2023-03-03T21:59:49;61.73;;;38.77;;
38513;SDS011;24282;48.400;10.808;2023-03-03T22:02:14;57.17;;;36.50;;
38513;SDS011;24282;48.400;10.808;2023-03-03T22:04:40;50.77;;;33.57;;